sensor_id;sensor_type;location;lat;lon;timestamp;temperature;humidity
29577;DHT22;16509;53.862;10.672;2023-09-07T00:01:45;19.60;99.90
29577;DHT22;16509;53.862;10.672;2023-09-07T00:04:11;18.60;99.90
29577;DHT22;16509;53.862;10.672;2023-09-07T00:06:38;20.00;99.90
29577;DHT22;16509;53.862;10.672;2023-09-07T00:09:03;19.50;99.90
29577;DHT22;16509;53.862;10.672;2023-09-07T00:11:31;16.20;99.90
29577;DHT22;16509;53.862;10.672;2023-09-07T00:13:56;18.10;99.90
29577;DHT22;16509;53.862;10.672;2023-09-07T00:16:24;18.50;99.90
29577;DHT22;16509;53.862;10.672;2023-09-07T00:18:50;18.40;99.90
29577;DHT22;16509;53.862;10.672;2023-09-07T00:21:15;19.10;99.90
29577;DHT22;16509;53.862;10.672;2023-09-07T00:23:41;19.40;99.90
29577;DHT22;16509;53.862;10.672;2023-09-07T00:26:07;18.00;99.90
29577;DHT22;16509;53.862;10.672;2023-09-07T00:28:33;18.00;99.90
29577;DHT22;16509;53.862;10.672;2023-09-07T00:30:58;18.00;99.90
29577;DHT22;16509;53.862;10.672;2023-09-07T00:33:24;18.00;99.90
29577;DHT22;16509;53.862;10.672;2023-09-07T00:35:49;18.00;99.90
29577;DHT22;16509;53.862;10.672;2023-09-07T00:38:15;18.00;99.90
29577;DHT22;16509;53.862;10.672;2023-09-07T00:40:44;18.00;99.90
29577;DHT22;16509;53.862;10.672;2023-09-07T00:43:13;18.00;99.90
29577;DHT22;16509;53.862;10.672;2023-09-07T00:45:39;17.90;99.90
29577;DHT22;16509;53.862;10.672;2023-09-07T00:48:05;17.90;99.90
29577;DHT22;16509;53.862;10.672;2023-09-07T00:50:31;17.90;99.90
29577;DHT22;16509;53.862;10.672;2023-09-07T00:52:58;17.90;99.90
29577;DHT22;16509;53.862;10.672;2023-09-07T00:55:24;17.80;99.90
29577;DHT22;16509;53.862;10.672;2023-09-07T00:57:50;18.40;99.90
29577;DHT22;16509;53.862;10.672;2023-09-07T01:00:16;17.80;99.90
29577;DHT22;16509;53.862;10.672;2023-09-07T01:02:41;19.70;99.90
29577;DHT22;16509;53.862;10.672;2023-09-07T01:05:10;18.20;99.90
29577;DHT22;16509;53.862;10.672;2023-09-07T01:07:46;19.20;99.90
29577;DHT22;16509;53.862;10.672;2023-09-07T01:10:13;20.00;99.90
29577;DHT22;16509;53.862;10.672;2023-09-07T01:12:40;17.70;99.90
29577;DHT22;16509;53.862;10.672;2023-09-07T01:15:06;19.20;99.90
29577;DHT22;16509;53.862;10.672;2023-09-07T01:17:33;17.60;99.90
29577;DHT22;16509;53.862;10.672;2023-09-07T01:20:03;18.00;99.90
29577;DHT22;16509;53.862;10.672;2023-09-07T01:22:31;17.70;99.90
29577;DHT22;16509;53.862;10.672;2023-09-07T01:24:57;18.50;99.90
29577;DHT22;16509;53.862;10.672;2023-09-07T01:27:24;17.70;99.90
29577;DHT22;16509;53.862;10.672;2023-09-07T01:29:49;17.60;99.90
29577;DHT22;16509;53.862;10.672;2023-09-07T01:32:16;18.30;99.90
29577;DHT22;16509;53.862;10.672;2023-09-07T01:34:42;17.70;99.90
29577;DHT22;16509;53.862;10.672;2023-09-07T01:37:07;17.70;99.90
29577;DHT22;16509;53.862;10.672;2023-09-07T01:39:33;17.40;99.90
29577;DHT22;16509;53.862;10.672;2023-09-07T01:41:58;17.60;99.90
29577;DHT22;16509;53.862;10.672;2023-09-07T01:44:24;17.60;99.90
29577;DHT22;16509;53.862;10.672;2023-09-07T01:46:51;18.00;99.90
29577;DHT22;16509;53.862;10.672;2023-09-07T01:49:16;17.90;99.90
29577;DHT22;16509;53.862;10.672;2023-09-07T01:51:42;18.20;99.90
29577;DHT22;16509;53.862;10.672;2023-09-07T01:54:07;17.50;99.90
29577;DHT22;16509;53.862;10.672;2023-09-07T01:56:35;18.30;99.90
29577;DHT22;16509;53.862;10.672;2023-09-07T01:59:00;17.50;99.90
29577;DHT22;16509;53.862;10.672;2023-09-07T02:01:31;17.50;99.90
29577;DHT22;16509;53.862;10.672;2023-09-07T02:03:57;17.70;99.90
29577;DHT22;16509;53.862;10.672;2023-09-07T02:06:23;17.40;99.90
29577;DHT22;16509;53.862;10.672;2023-09-07T02:08:48;17.50;99.90
29577;DHT22;16509;53.862;10.672;2023-09-07T02:11:14;18.30;99.90
29577;DHT22;16509;53.862;10.672;2023-09-07T02:13:43;17.40;99.90
29577;DHT22;16509;53.862;10.672;2023-09-07T02:16:09;17.60;99.90
29577;DHT22;16509;53.862;10.672;2023-09-07T02:18:36;18.10;99.90
29577;DHT22;16509;53.862;10.672;2023-09-07T02:21:03;18.20;99.90
29577;DHT22;16509;53.862;10.672;2023-09-07T02:23:30;17.40;99.90
29577;DHT22;16509;53.862;10.672;2023-09-07T02:25:55;17.30;99.90
29577;DHT22;16509;53.862;10.672;2023-09-07T02:28:21;19.20;99.90
29577;DHT22;16509;53.862;10.672;2023-09-07T02:30:47;17.70;99.90
29577;DHT22;16509;53.862;10.672;2023-09-07T02:33:12;17.20;99.90
29577;DHT22;16509;53.862;10.672;2023-09-07T02:35:38;17.20;99.90
29577;DHT22;16509;53.862;10.672;2023-09-07T02:38:04;17.70;99.90
29577;DHT22;16509;53.862;10.672;2023-09-07T02:40:29;17.20;99.90
29577;DHT22;16509;53.862;10.672;2023-09-07T02:42:55;17.30;99.90
29577;DHT22;16509;53.862;10.672;2023-09-07T02:45:20;17.20;99.90
29577;DHT22;16509;53.862;10.672;2023-09-07T02:47:46;17.20;99.90
29577;DHT22;16509;53.862;10.672;2023-09-07T02:50:13;17.20;99.90
29577;DHT22;16509;53.862;10.672;2023-09-07T02:52:39;17.10;99.90
29577;DHT22;16509;53.862;10.672;2023-09-07T02:55:05;17.50;99.90
29577;DHT22;16509;53.862;10.672;2023-09-07T02:57:31;17.10;99.90
29577;DHT22;16509;53.862;10.672;2023-09-07T02:59:57;17.20;99.90
29577;DHT22;16509;53.862;10.672;2023-09-07T03:02:23;17.20;99.90
29577;DHT22;16509;53.862;10.672;2023-09-07T03:04:53;17.10;99.90
29577;DHT22;16509;53.862;10.672;2023-09-07T03:07:19;17.40;99.90
29577;DHT22;16509;53.862;10.672;2023-09-07T03:09:44;17.10;99.90
29577;DHT22;16509;53.862;10.672;2023-09-07T03:12:10;17.10;99.90
29577;DHT22;16509;53.862;10.672;2023-09-07T03:14:35;17.10;99.90
29577;DHT22;16509;53.862;10.672;2023-09-07T03:17:01;19.00;99.90
29577;DHT22;16509;53.862;10.672;2023-09-07T03:19:28;17.00;99.90
29577;DHT22;16509;53.862;10.672;2023-09-07T03:21:54;18.00;99.90
29577;DHT22;16509;53.862;10.672;2023-09-07T03:24:20;17.10;99.90
29577;DHT22;16509;53.862;10.672;2023-09-07T03:26:46;17.40;99.90
29577;DHT22;16509;53.862;10.672;2023-09-07T03:29:11;17.80;99.90
29577;DHT22;16509;53.862;10.672;2023-09-07T03:31:37;17.00;99.90
29577;DHT22;16509;53.862;10.672;2023-09-07T03:34:02;17.30;99.90
29577;DHT22;16509;53.862;10.672;2023-09-07T03:36:28;16.90;99.90
29577;DHT22;16509;53.862;10.672;2023-09-07T03:38:53;17.10;99.90
29577;DHT22;16509;53.862;10.672;2023-09-07T03:41:19;16.90;99.90
29577;DHT22;16509;53.862;10.672;2023-09-07T03:43:44;17.00;99.90
29577;DHT22;16509;53.862;10.672;2023-09-07T03:46:10;16.90;99.90
29577;DHT22;16509;53.862;10.672;2023-09-07T03:48:36;16.90;99.90
29577;DHT22;16509;53.862;10.672;2023-09-07T03:51:05;17.10;99.90
29577;DHT22;16509;53.862;10.672;2023-09-07T03:53:31;16.90;99.90
29577;DHT22;16509;53.862;10.672;2023-09-07T03:55:56;16.80;99.90
29577;DHT22;16509;53.862;10.672;2023-09-07T03:58:22;16.80;99.90
29577;DHT22;16509;53.862;10.672;2023-09-07T04:00:47;18.90;99.90
29577;DHT22;16509;53.862;10.672;2023-09-07T04:03:13;19.00;99.90
29577;DHT22;16509;53.862;10.672;2023-09-07T04:05:40;17.20;99.90
29577;DHT22;16509;53.862;10.672;2023-09-07T04:08:06;16.80;99.90
29577;DHT22;16509;53.862;10.672;2023-09-07T04:10:31;16.90;99.90
29577;DHT22;16509;53.862;10.672;2023-09-07T04:12:57;17.70;99.90
29577;DHT22;16509;53.862;10.672;2023-09-07T04:15:22;16.80;99.90
29577;DHT22;16509;53.862;10.672;2023-09-07T04:17:50;16.90;99.90
29577;DHT22;16509;53.862;10.672;2023-09-07T04:20:16;16.80;99.90
29577;DHT22;16509;53.862;10.672;2023-09-07T04:22:42;16.80;99.90
29577;DHT22;16509;53.862;10.672;2023-09-07T04:25:08;16.80;99.90
29577;DHT22;16509;53.862;10.672;2023-09-07T04:27:36;16.80;99.90
29577;DHT22;16509;53.862;10.672;2023-09-07T04:30:02;16.70;99.90
29577;DHT22;16509;53.862;10.672;2023-09-07T04:32:28;16.70;99.90
29577;DHT22;16509;53.862;10.672;2023-09-07T04:34:55;16.70;99.90
29577;DHT22;16509;53.862;10.672;2023-09-07T04:37:21;16.70;99.90
29577;DHT22;16509;53.862;10.672;2023-09-07T04:39:50;16.70;99.90
29577;DHT22;16509;53.862;10.672;2023-09-07T04:42:16;16.60;99.90
29577;DHT22;16509;53.862;10.672;2023-09-07T04:44:41;16.60;99.90
29577;DHT22;16509;53.862;10.672;2023-09-07T04:47:07;16.60;99.90
29577;DHT22;16509;53.862;10.672;2023-09-07T04:49:32;16.60;99.90
29577;DHT22;16509;53.862;10.672;2023-09-07T04:51:59;16.60;99.90
29577;DHT22;16509;53.862;10.672;2023-09-07T04:54:24;16.60;99.90
29577;DHT22;16509;53.862;10.672;2023-09-07T04:56:50;16.60;99.90
29577;DHT22;16509;53.862;10.672;2023-09-07T04:59:15;16.60;99.90
29577;DHT22;16509;53.862;10.672;2023-09-07T05:01:41;16.90;99.90
29577;DHT22;16509;53.862;10.672;2023-09-07T05:04:06;16.60;99.90
29577;DHT22;16509;53.862;10.672;2023-09-07T05:06:32;16.60;99.90
29577;DHT22;16509;53.862;10.672;2023-09-07T05:09:02;16.70;99.90
29577;DHT22;16509;53.862;10.672;2023-09-07T05:11:28;16.80;99.90
29577;DHT22;16509;53.862;10.672;2023-09-07T05:13:53;16.70;99.90
29577;DHT22;16509;53.862;10.672;2023-09-07T05:16:19;16.70;99.90
29577;DHT22;16509;53.862;10.672;2023-09-07T05:18:44;16.70;99.90
29577;DHT22;16509;53.862;10.672;2023-09-07T05:21:14;16.70;99.90
29577;DHT22;16509;53.862;10.672;2023-09-07T05:23:40;16.80;99.90
29577;DHT22;16509;53.862;10.672;2023-09-07T05:26:06;16.80;99.90
29577;DHT22;16509;53.862;10.672;2023-09-07T05:28:31;16.80;99.90
29577;DHT22;16509;53.862;10.672;2023-09-07T05:30:57;16.80;99.90
29577;DHT22;16509;53.862;10.672;2023-09-07T05:33:22;16.80;99.90
29577;DHT22;16509;53.862;10.672;2023-09-07T05:35:48;16.70;99.90
29577;DHT22;16509;53.862;10.672;2023-09-07T05:38:14;16.90;99.90
29577;DHT22;16509;53.862;10.672;2023-09-07T05:40:41;16.90;99.90
29577;DHT22;16509;53.862;10.672;2023-09-07T05:43:07;16.90;99.90
29577;DHT22;16509;53.862;10.672;2023-09-07T05:45:38;17.00;99.90
29577;DHT22;16509;53.862;10.672;2023-09-07T05:48:04;16.90;99.90
29577;DHT22;16509;53.862;10.672;2023-09-07T05:50:31;17.00;99.90
29577;DHT22;16509;53.862;10.672;2023-09-07T05:52:57;17.10;99.90
29577;DHT22;16509;53.862;10.672;2023-09-07T05:55:22;17.00;99.90
29577;DHT22;16509;53.862;10.672;2023-09-07T05:57:49;17.00;99.90
29577;DHT22;16509;53.862;10.672;2023-09-07T06:00:14;17.00;99.90
29577;DHT22;16509;53.862;10.672;2023-09-07T06:02:42;17.10;99.90
29577;DHT22;16509;53.862;10.672;2023-09-07T06:05:08;17.10;99.90
29577;DHT22;16509;53.862;10.672;2023-09-07T06:07:34;17.10;99.90
29577;DHT22;16509;53.862;10.672;2023-09-07T06:09:59;17.10;99.90
29577;DHT22;16509;53.862;10.672;2023-09-07T06:12:25;17.20;99.90
29577;DHT22;16509;53.862;10.672;2023-09-07T06:14:50;18.40;99.90
29577;DHT22;16509;53.862;10.672;2023-09-07T06:17:16;17.30;99.90
29577;DHT22;16509;53.862;10.672;2023-09-07T06:19:41;17.30;99.90
29577;DHT22;16509;53.862;10.672;2023-09-07T06:22:07;17.40;99.90
29577;DHT22;16509;53.862;10.672;2023-09-07T06:24:33;17.40;99.90
29577;DHT22;16509;53.862;10.672;2023-09-07T06:26:58;17.40;99.90
29577;DHT22;16509;53.862;10.672;2023-09-07T06:29:24;17.70;99.90
29577;DHT22;16509;53.862;10.672;2023-09-07T06:31:49;17.50;99.90
29577;DHT22;16509;53.862;10.672;2023-09-07T06:34:15;17.60;99.90
29577;DHT22;16509;53.862;10.672;2023-09-07T06:36:41;17.60;99.90
29577;DHT22;16509;53.862;10.672;2023-09-07T06:39:07;19.40;99.90
29577;DHT22;16509;53.862;10.672;2023-09-07T06:41:32;18.90;99.90
29577;DHT22;16509;53.862;10.672;2023-09-07T06:43:58;17.80;99.90
29577;DHT22;16509;53.862;10.672;2023-09-07T06:46:23;17.70;99.90
29577;DHT22;16509;53.862;10.672;2023-09-07T06:48:49;18.50;99.90
29577;DHT22;16509;53.862;10.672;2023-09-07T06:51:14;19.10;99.90
29577;DHT22;16509;53.862;10.672;2023-09-07T06:53:40;18.30;99.90
29577;DHT22;16509;53.862;10.672;2023-09-07T06:56:06;18.00;99.90
29577;DHT22;16509;53.862;10.672;2023-09-07T06:58:32;18.10;99.90
29577;DHT22;16509;53.862;10.672;2023-09-07T07:01:00;19.50;99.90
29577;DHT22;16509;53.862;10.672;2023-09-07T07:03:27;18.20;99.90
29577;DHT22;16509;53.862;10.672;2023-09-07T07:05:53;18.30;99.90
29577;DHT22;16509;53.862;10.672;2023-09-07T07:08:21;18.40;99.90
29577;DHT22;16509;53.862;10.672;2023-09-07T07:10:47;18.50;99.90
29577;DHT22;16509;53.862;10.672;2023-09-07T07:13:13;18.60;99.90
29577;DHT22;16509;53.862;10.672;2023-09-07T07:15:38;18.70;99.90
29577;DHT22;16509;53.862;10.672;2023-09-07T07:18:04;18.70;99.90
29577;DHT22;16509;53.862;10.672;2023-09-07T07:20:38;18.80;99.90
29577;DHT22;16509;53.862;10.672;2023-09-07T07:23:04;18.90;99.90
29577;DHT22;16509;53.862;10.672;2023-09-07T07:25:29;19.00;99.90
29577;DHT22;16509;53.862;10.672;2023-09-07T07:28:01;19.10;99.90
29577;DHT22;16509;53.862;10.672;2023-09-07T07:30:31;19.20;99.90
29577;DHT22;16509;53.862;10.672;2023-09-07T07:32:57;19.30;99.90
29577;DHT22;16509;53.862;10.672;2023-09-07T07:35:23;19.50;99.90
29577;DHT22;16509;53.862;10.672;2023-09-07T07:37:49;19.60;99.90
29577;DHT22;16509;53.862;10.672;2023-09-07T07:40:15;19.70;99.90
29577;DHT22;16509;53.862;10.672;2023-09-07T07:42:41;19.80;99.90
29577;DHT22;16509;53.862;10.672;2023-09-07T07:45:07;19.90;99.90
29577;DHT22;16509;53.862;10.672;2023-09-07T07:47:33;20.00;99.90
29577;DHT22;16509;53.862;10.672;2023-09-07T07:49:59;20.10;99.90
29577;DHT22;16509;53.862;10.672;2023-09-07T07:52:24;20.10;99.90
29577;DHT22;16509;53.862;10.672;2023-09-07T07:54:50;20.20;99.90
29577;DHT22;16509;53.862;10.672;2023-09-07T07:57:16;20.30;99.90
29577;DHT22;16509;53.862;10.672;2023-09-07T07:59:41;20.40;99.90
29577;DHT22;16509;53.862;10.672;2023-09-07T08:02:07;20.50;99.90
29577;DHT22;16509;53.862;10.672;2023-09-07T08:04:32;21.00;99.90
29577;DHT22;16509;53.862;10.672;2023-09-07T08:07:00;20.70;99.90
29577;DHT22;16509;53.862;10.672;2023-09-07T08:09:29;20.80;99.90
29577;DHT22;16509;53.862;10.672;2023-09-07T08:11:55;20.90;99.90
29577;DHT22;16509;53.862;10.672;2023-09-07T08:14:21;21.00;99.90
29577;DHT22;16509;53.862;10.672;2023-09-07T08:16:47;21.20;99.90
29577;DHT22;16509;53.862;10.672;2023-09-07T08:19:13;21.30;99.90
29577;DHT22;16509;53.862;10.672;2023-09-07T08:21:39;21.40;99.90
29577;DHT22;16509;53.862;10.672;2023-09-07T08:24:07;21.60;99.90
29577;DHT22;16509;53.862;10.672;2023-09-07T08:26:34;21.70;99.90
29577;DHT22;16509;53.862;10.672;2023-09-07T08:29:00;21.80;99.90
29577;DHT22;16509;53.862;10.672;2023-09-07T08:31:37;21.80;99.90
29577;DHT22;16509;53.862;10.672;2023-09-07T08:34:05;21.90;99.90
29577;DHT22;16509;53.862;10.672;2023-09-07T08:36:32;22.00;99.90
29577;DHT22;16509;53.862;10.672;2023-09-07T08:39:00;22.20;99.90
29577;DHT22;16509;53.862;10.672;2023-09-07T08:41:40;22.30;99.90
29577;DHT22;16509;53.862;10.672;2023-09-07T08:44:10;22.30;99.90
29577;DHT22;16509;53.862;10.672;2023-09-07T08:46:37;22.40;99.90
29577;DHT22;16509;53.862;10.672;2023-09-07T08:49:03;22.40;99.90
29577;DHT22;16509;53.862;10.672;2023-09-07T08:51:30;22.60;99.90
29577;DHT22;16509;53.862;10.672;2023-09-07T08:54:00;22.70;99.90
29577;DHT22;16509;53.862;10.672;2023-09-07T08:56:26;22.90;99.90
29577;DHT22;16509;53.862;10.672;2023-09-07T08:58:51;23.10;99.90
29577;DHT22;16509;53.862;10.672;2023-09-07T09:01:17;23.20;99.90
29577;DHT22;16509;53.862;10.672;2023-09-07T09:03:43;23.20;99.90
29577;DHT22;16509;53.862;10.672;2023-09-07T09:06:10;23.30;99.90
29577;DHT22;16509;53.862;10.672;2023-09-07T09:08:46;23.90;99.90
29577;DHT22;16509;53.862;10.672;2023-09-07T09:11:14;23.50;99.90
29577;DHT22;16509;53.862;10.672;2023-09-07T09:13:40;23.70;99.90
29577;DHT22;16509;53.862;10.672;2023-09-07T09:16:06;23.80;99.90
29577;DHT22;16509;53.862;10.672;2023-09-07T09:18:32;23.70;99.90
29577;DHT22;16509;53.862;10.672;2023-09-07T09:20:57;24.00;99.90
29577;DHT22;16509;53.862;10.672;2023-09-07T09:23:35;24.20;99.90
29577;DHT22;16509;53.862;10.672;2023-09-07T09:26:01;24.20;99.90
29577;DHT22;16509;53.862;10.672;2023-09-07T09:28:30;24.40;99.90
29577;DHT22;16509;53.862;10.672;2023-09-07T09:30:58;24.60;99.90
29577;DHT22;16509;53.862;10.672;2023-09-07T09:33:23;24.80;99.90
29577;DHT22;16509;53.862;10.672;2023-09-07T09:35:50;24.70;99.90
29577;DHT22;16509;53.862;10.672;2023-09-07T09:38:17;24.90;99.90
29577;DHT22;16509;53.862;10.672;2023-09-07T09:40:42;25.00;99.90
29577;DHT22;16509;53.862;10.672;2023-09-07T09:43:09;25.10;99.90
29577;DHT22;16509;53.862;10.672;2023-09-07T09:45:35;25.30;99.90
29577;DHT22;16509;53.862;10.672;2023-09-07T09:48:01;25.30;99.90
29577;DHT22;16509;53.862;10.672;2023-09-07T09:50:28;25.40;99.90
29577;DHT22;16509;53.862;10.672;2023-09-07T09:52:54;25.50;99.90
29577;DHT22;16509;53.862;10.672;2023-09-07T09:55:22;26.00;99.90
29577;DHT22;16509;53.862;10.672;2023-09-07T09:57:47;25.70;99.90
29577;DHT22;16509;53.862;10.672;2023-09-07T10:00:13;25.90;99.90
29577;DHT22;16509;53.862;10.672;2023-09-07T10:02:43;26.00;99.90
29577;DHT22;16509;53.862;10.672;2023-09-07T10:05:10;26.00;99.90
29577;DHT22;16509;53.862;10.672;2023-09-07T10:07:43;26.70;99.90
29577;DHT22;16509;53.862;10.672;2023-09-07T10:10:10;26.10;99.90
29577;DHT22;16509;53.862;10.672;2023-09-07T10:12:45;26.20;99.90
29577;DHT22;16509;53.862;10.672;2023-09-07T10:15:21;26.10;99.90
29577;DHT22;16509;53.862;10.672;2023-09-07T10:17:47;26.20;99.90
29577;DHT22;16509;53.862;10.672;2023-09-07T10:20:16;26.30;99.90
29577;DHT22;16509;53.862;10.672;2023-09-07T10:22:43;26.40;99.90
29577;DHT22;16509;53.862;10.672;2023-09-07T10:25:22;26.50;99.90
29577;DHT22;16509;53.862;10.672;2023-09-07T10:27:48;26.60;99.90
29577;DHT22;16509;53.862;10.672;2023-09-07T10:30:13;26.70;99.90
29577;DHT22;16509;53.862;10.672;2023-09-07T10:32:41;26.90;99.90
29577;DHT22;16509;53.862;10.672;2023-09-07T10:35:19;27.10;99.90
29577;DHT22;16509;53.862;10.672;2023-09-07T10:37:47;27.20;99.90
29577;DHT22;16509;53.862;10.672;2023-09-07T10:40:18;27.30;99.90
29577;DHT22;16509;53.862;10.672;2023-09-07T10:42:43;27.30;99.90
29577;DHT22;16509;53.862;10.672;2023-09-07T10:45:11;27.40;99.90
29577;DHT22;16509;53.862;10.672;2023-09-07T10:47:41;27.40;99.90
29577;DHT22;16509;53.862;10.672;2023-09-07T10:50:09;27.50;99.90
29577;DHT22;16509;53.862;10.672;2023-09-07T10:52:35;27.40;99.90
29577;DHT22;16509;53.862;10.672;2023-09-07T10:55:01;27.30;99.90
29577;DHT22;16509;53.862;10.672;2023-09-07T10:57:27;27.40;99.90
29577;DHT22;16509;53.862;10.672;2023-09-07T10:59:52;27.50;99.90
29577;DHT22;16509;53.862;10.672;2023-09-07T11:02:20;27.70;99.90
29577;DHT22;16509;53.862;10.672;2023-09-07T11:04:46;27.90;99.90
29577;DHT22;16509;53.862;10.672;2023-09-07T11:07:12;28.20;99.90
29577;DHT22;16509;53.862;10.672;2023-09-07T11:09:42;28.30;99.90
29577;DHT22;16509;53.862;10.672;2023-09-07T11:12:08;28.50;99.90
29577;DHT22;16509;53.862;10.672;2023-09-07T11:14:34;28.60;99.90
29577;DHT22;16509;53.862;10.672;2023-09-07T11:17:01;28.50;99.90
29577;DHT22;16509;53.862;10.672;2023-09-07T11:19:26;28.70;99.90
29577;DHT22;16509;53.862;10.672;2023-09-07T11:21:55;28.80;99.90
29577;DHT22;16509;53.862;10.672;2023-09-07T11:24:20;29.20;99.90
29577;DHT22;16509;53.862;10.672;2023-09-07T11:26:47;29.10;99.90
29577;DHT22;16509;53.862;10.672;2023-09-07T11:29:16;28.90;99.90
29577;DHT22;16509;53.862;10.672;2023-09-07T11:31:43;29.00;99.90
29577;DHT22;16509;53.862;10.672;2023-09-07T11:34:10;29.10;99.90
29577;DHT22;16509;53.862;10.672;2023-09-07T11:36:36;29.30;99.90
29577;DHT22;16509;53.862;10.672;2023-09-07T11:39:01;29.50;99.90
29577;DHT22;16509;53.862;10.672;2023-09-07T11:41:35;29.40;99.90
29577;DHT22;16509;53.862;10.672;2023-09-07T11:44:01;29.40;99.90
29577;DHT22;16509;53.862;10.672;2023-09-07T11:46:26;29.60;99.90
29577;DHT22;16509;53.862;10.672;2023-09-07T11:48:52;29.90;99.90
29577;DHT22;16509;53.862;10.672;2023-09-07T11:51:17;29.90;99.90
29577;DHT22;16509;53.862;10.672;2023-09-07T11:53:43;30.30;99.90
29577;DHT22;16509;53.862;10.672;2023-09-07T11:56:08;30.70;99.90
29577;DHT22;16509;53.862;10.672;2023-09-07T11:58:34;31.10;99.90
29577;DHT22;16509;53.862;10.672;2023-09-07T12:00:59;31.10;99.90
29577;DHT22;16509;53.862;10.672;2023-09-07T12:03:25;31.30;99.90
29577;DHT22;16509;53.862;10.672;2023-09-07T12:05:51;31.00;99.90
29577;DHT22;16509;53.862;10.672;2023-09-07T12:08:16;31.10;99.90
29577;DHT22;16509;53.862;10.672;2023-09-07T12:10:42;31.50;99.90
29577;DHT22;16509;53.862;10.672;2023-09-07T12:13:07;30.80;99.20
29577;DHT22;16509;53.862;10.672;2023-09-07T12:15:33;30.80;99.90
29577;DHT22;16509;53.862;10.672;2023-09-07T12:17:58;31.00;99.90
29577;DHT22;16509;53.862;10.672;2023-09-07T12:20:24;31.40;99.90
29577;DHT22;16509;53.862;10.672;2023-09-07T12:22:49;31.20;99.90
29577;DHT22;16509;53.862;10.672;2023-09-07T12:25:15;30.90;99.90
29577;DHT22;16509;53.862;10.672;2023-09-07T12:27:41;30.70;99.90
29577;DHT22;16509;53.862;10.672;2023-09-07T12:30:09;31.30;99.90
29577;DHT22;16509;53.862;10.672;2023-09-07T12:32:38;31.60;99.90
29577;DHT22;16509;53.862;10.672;2023-09-07T12:35:04;31.70;99.90
29577;DHT22;16509;53.862;10.672;2023-09-07T12:37:34;32.20;99.90
29577;DHT22;16509;53.862;10.672;2023-09-07T12:40:00;32.10;99.90
29577;DHT22;16509;53.862;10.672;2023-09-07T12:42:26;32.20;99.90
29577;DHT22;16509;53.862;10.672;2023-09-07T12:44:51;31.90;99.90
29577;DHT22;16509;53.862;10.672;2023-09-07T12:47:17;32.30;99.90
29577;DHT22;16509;53.862;10.672;2023-09-07T12:49:42;32.10;99.90
29577;DHT22;16509;53.862;10.672;2023-09-07T12:52:08;32.50;99.90
29577;DHT22;16509;53.862;10.672;2023-09-07T12:54:37;32.90;99.90
29577;DHT22;16509;53.862;10.672;2023-09-07T12:57:04;32.60;99.90
29577;DHT22;16509;53.862;10.672;2023-09-07T12:59:29;32.70;99.90
29577;DHT22;16509;53.862;10.672;2023-09-07T13:01:55;32.80;99.90
29577;DHT22;16509;53.862;10.672;2023-09-07T13:04:23;32.50;99.90
29577;DHT22;16509;53.862;10.672;2023-09-07T13:06:49;32.30;99.90
29577;DHT22;16509;53.862;10.672;2023-09-07T13:09:14;32.10;99.90
29577;DHT22;16509;53.862;10.672;2023-09-07T13:11:40;31.90;99.90
29577;DHT22;16509;53.862;10.672;2023-09-07T13:14:05;31.60;99.90
29577;DHT22;16509;53.862;10.672;2023-09-07T13:16:33;31.70;99.90
29577;DHT22;16509;53.862;10.672;2023-09-07T13:18:59;31.70;99.90
29577;DHT22;16509;53.862;10.672;2023-09-07T13:21:25;32.00;99.90
29577;DHT22;16509;53.862;10.672;2023-09-07T13:23:50;31.80;99.90
29577;DHT22;16509;53.862;10.672;2023-09-07T13:26:16;31.60;99.90
29577;DHT22;16509;53.862;10.672;2023-09-07T13:28:41;31.70;99.90
29577;DHT22;16509;53.862;10.672;2023-09-07T13:31:07;31.60;99.90
29577;DHT22;16509;53.862;10.672;2023-09-07T13:33:32;31.30;99.90
29577;DHT22;16509;53.862;10.672;2023-09-07T13:35:58;31.20;99.90
29577;DHT22;16509;53.862;10.672;2023-09-07T13:38:24;31.10;99.90
29577;DHT22;16509;53.862;10.672;2023-09-07T13:40:49;31.00;99.90
29577;DHT22;16509;53.862;10.672;2023-09-07T13:43:15;31.00;99.90
29577;DHT22;16509;53.862;10.672;2023-09-07T13:45:40;30.90;99.90
29577;DHT22;16509;53.862;10.672;2023-09-07T13:48:06;30.70;99.90
29577;DHT22;16509;53.862;10.672;2023-09-07T13:50:31;30.10;99.90
29577;DHT22;16509;53.862;10.672;2023-09-07T13:52:57;29.60;99.90
29577;DHT22;16509;53.862;10.672;2023-09-07T13:55:23;29.10;99.90
29577;DHT22;16509;53.862;10.672;2023-09-07T13:57:50;28.60;99.90
29577;DHT22;16509;53.862;10.672;2023-09-07T14:00:16;28.20;99.90
29577;DHT22;16509;53.862;10.672;2023-09-07T14:02:41;27.80;99.90
29577;DHT22;16509;53.862;10.672;2023-09-07T14:05:07;27.50;99.90
29577;DHT22;16509;53.862;10.672;2023-09-07T14:07:33;27.20;99.90
29577;DHT22;16509;53.862;10.672;2023-09-07T14:09:59;27.00;99.90
29577;DHT22;16509;53.862;10.672;2023-09-07T14:12:26;26.80;99.90
29577;DHT22;16509;53.862;10.672;2023-09-07T14:14:52;26.60;99.90
29577;DHT22;16509;53.862;10.672;2023-09-07T14:17:18;26.50;99.90
29577;DHT22;16509;53.862;10.672;2023-09-07T14:19:43;26.30;99.90
29577;DHT22;16509;53.862;10.672;2023-09-07T14:22:13;26.20;99.90
29577;DHT22;16509;53.862;10.672;2023-09-07T14:24:39;26.10;99.90
29577;DHT22;16509;53.862;10.672;2023-09-07T14:27:05;26.00;99.90
29577;DHT22;16509;53.862;10.672;2023-09-07T14:29:30;25.80;99.90
29577;DHT22;16509;53.862;10.672;2023-09-07T14:31:56;25.70;99.90
29577;DHT22;16509;53.862;10.672;2023-09-07T14:34:21;25.50;99.90
29577;DHT22;16509;53.862;10.672;2023-09-07T14:36:47;25.40;99.90
29577;DHT22;16509;53.862;10.672;2023-09-07T14:39:13;25.30;99.90
29577;DHT22;16509;53.862;10.672;2023-09-07T14:41:39;25.20;99.90
29577;DHT22;16509;53.862;10.672;2023-09-07T14:44:05;25.10;99.90
29577;DHT22;16509;53.862;10.672;2023-09-07T14:46:31;25.10;99.90
29577;DHT22;16509;53.862;10.672;2023-09-07T14:48:57;25.00;99.90
29577;DHT22;16509;53.862;10.672;2023-09-07T14:51:23;25.00;99.90
29577;DHT22;16509;53.862;10.672;2023-09-07T14:53:49;24.90;99.90
29577;DHT22;16509;53.862;10.672;2023-09-07T14:56:14;24.50;99.90
29577;DHT22;16509;53.862;10.672;2023-09-07T14:58:40;25.30;99.90
29577;DHT22;16509;53.862;10.672;2023-09-07T15:01:05;24.70;99.90
29577;DHT22;16509;53.862;10.672;2023-09-07T15:03:31;24.70;99.90
29577;DHT22;16509;53.862;10.672;2023-09-07T15:05:57;24.50;99.90
29577;DHT22;16509;53.862;10.672;2023-09-07T15:08:24;24.50;99.90
29577;DHT22;16509;53.862;10.672;2023-09-07T15:10:50;24.50;99.90